createdAt,value
2023-02-26T00:01:29.353Z,43.22
2023-02-26T00:03:59.349Z,45.92
2023-02-26T00:06:28.485Z,44.38
2023-02-26T00:08:56.462Z,42.58
2023-02-26T00:11:23.964Z,40.78
2023-02-26T00:13:51.794Z,42.85
2023-02-26T00:16:33.321Z,41.55
2023-02-26T00:19:03.677Z,40.15
2023-02-26T00:21:32.457Z,39.00
2023-02-26T00:24:00.886Z,38.42
2023-02-26T00:26:30.952Z,41.38
2023-02-26T00:28:59.167Z,38.05
2023-02-26T00:31:27.445Z,40.22
2023-02-26T00:33:56.168Z,38.65
2023-02-26T00:36:31.009Z,38.22
2023-02-26T00:39:27.404Z,37.40
2023-02-26T00:41:54.889Z,37.58
2023-02-26T00:44:22.310Z,37.60
2023-02-26T00:47:19.124Z,34.80
2023-02-26T00:50:13.802Z,33.45
2023-02-26T00:52:47.660Z,31.80
2023-02-26T00:55:15.342Z,32.40
2023-02-26T00:57:42.538Z,32.45
2023-02-26T01:00:11.226Z,33.88
2023-02-26T01:02:39.814Z,33.78
2023-02-26T01:05:08.556Z,32.50
2023-02-26T01:07:47.550Z,34.22
2023-02-26T01:10:14.989Z,31.17
2023-02-26T01:12:42.921Z,31.90
2023-02-26T01:15:10.697Z,31.33
2023-02-26T01:18:03.477Z,30.20
2023-02-26T01:20:45.050Z,27.55
2023-02-26T01:23:18.978Z,31.88
2023-02-26T01:25:55.191Z,33.38
2023-02-26T01:28:23.292Z,29.98
2023-02-26T01:30:55.994Z,28.40
2023-02-26T01:33:35.576Z,29.08
2023-02-26T01:36:34.032Z,33.60
2023-02-26T01:39:50.853Z,31.42
2023-02-26T01:42:32.131Z,32.70
2023-02-26T01:45:13.648Z,34.28
2023-02-26T01:47:58.607Z,29.77
2023-02-26T01:50:30.095Z,27.88
2023-02-26T01:53:10.892Z,29.42
2023-02-26T01:55:38.103Z,30.65
2023-02-26T01:58:06.178Z,28.42
2023-02-26T02:00:33.491Z,28.08
2023-02-26T02:03:01.665Z,27.67
2023-02-26T02:05:39.471Z,26.83
2023-02-26T02:08:07.876Z,28.90
2023-02-26T02:10:35.444Z,26.60
2023-02-26T02:13:05.583Z,30.90
2023-02-26T02:15:56.148Z,27.58
2023-02-26T02:18:49.647Z,27.70
2023-02-26T02:21:39.968Z,26.90
2023-02-26T02:24:34.531Z,30.10
2023-02-26T02:27:19.092Z,30.58
2023-02-26T02:30:27.726Z,31.60
2023-02-26T02:33:03.571Z,30.45
2023-02-26T02:35:39.225Z,27.50
2023-02-26T02:38:30.513Z,29.52
2023-02-26T02:41:13.333Z,28.38
2023-02-26T02:43:42.422Z,29.08
2023-02-26T02:46:18.921Z,30.67
2023-02-26T02:48:58.921Z,28.77
2023-02-26T02:51:34.763Z,30.92
2023-02-26T02:54:37.582Z,29.20
2023-02-26T02:57:16.202Z,26.83
2023-02-26T02:59:48.358Z,29.05
2023-02-26T03:02:46.107Z,28.92
2023-02-26T03:05:14.536Z,29.13
2023-02-26T03:08:21.365Z,26.80
2023-02-26T03:10:48.796Z,27.63
2023-02-26T03:13:22.314Z,27.80
2023-02-26T03:16:12.660Z,31.08
2023-02-26T03:18:58.375Z,27.55
2023-02-26T03:21:51.056Z,27.05
2023-02-26T03:24:49.165Z,28.13
2023-02-26T03:27:34.985Z,30.23
2023-02-26T03:30:02.310Z,30.25
2023-02-26T03:32:52.029Z,30.30
2023-02-26T03:35:30.091Z,31.27
2023-02-26T03:38:02.144Z,31.35
2023-02-26T03:40:40.378Z,34.22
2023-02-26T03:43:15.171Z,34.08
2023-02-26T03:45:47.342Z,27.55
2023-02-26T03:48:20.677Z,28.02
2023-02-26T03:54:04.805Z,25.48
2023-02-26T03:56:40.864Z,26.92
2023-02-26T03:59:09.113Z,27.05
2023-02-26T04:01:55.581Z,26.02
2023-02-26T04:04:30.302Z,27.10
2023-02-26T04:06:58.095Z,24.90
2023-02-26T04:09:25.717Z,28.95
2023-02-26T04:11:54.549Z,27.55
2023-02-26T04:14:21.925Z,25.60
2023-02-26T04:16:49.341Z,62.80
2023-02-26T04:19:16.676Z,33.25
2023-02-26T04:21:46.583Z,34.20
2023-02-26T04:24:16.366Z,28.77
2023-02-26T04:26:44.280Z,29.00
2023-02-26T04:29:11.827Z,30.70
2023-02-26T04:31:39.184Z,30.63
2023-02-26T04:34:06.853Z,31.90
2023-02-26T04:36:34.013Z,30.60
2023-02-26T04:39:01.536Z,29.05
2023-02-26T04:41:30.649Z,28.15
2023-02-26T04:43:58.143Z,42.72
2023-02-26T04:46:29.585Z,33.60
2023-02-26T04:48:57.542Z,27.65
2023-02-26T04:51:25.449Z,26.38
2023-02-26T04:53:53.260Z,29.20
2023-02-26T04:56:21.209Z,30.40
2023-02-26T04:58:48.739Z,27.10
2023-02-26T05:01:22.340Z,26.25
2023-02-26T05:03:49.724Z,30.58
2023-02-26T05:06:17.025Z,26.35
2023-02-26T05:08:44.267Z,26.38
2023-02-26T05:11:11.705Z,34.05
2023-02-26T05:13:39.471Z,32.25
2023-02-26T05:16:07.600Z,25.25
2023-02-26T05:18:35.433Z,25.60
2023-02-26T05:21:03.080Z,22.80
2023-02-26T05:23:30.528Z,24.40
2023-02-26T05:25:59.080Z,28.92
2023-02-26T05:28:27.366Z,27.13
2023-02-26T05:30:57.802Z,26.33
2023-02-26T05:33:26.967Z,35.60
2023-02-26T05:35:54.539Z,24.48
2023-02-26T05:38:21.660Z,31.58
2023-02-26T05:40:49.004Z,33.15
2023-02-26T05:43:16.221Z,31.45
2023-02-26T05:45:43.318Z,29.05
2023-02-26T05:48:11.266Z,29.42
2023-02-26T05:50:38.428Z,30.33
2023-02-26T05:53:05.683Z,30.58
2023-02-26T05:55:33.273Z,36.40
2023-02-26T05:58:00.702Z,44.78
2023-02-26T06:00:28.059Z,34.95
2023-02-26T06:02:55.449Z,30.40
2023-02-26T06:05:22.730Z,32.92
2023-02-26T06:07:49.977Z,32.28
2023-02-26T06:10:17.395Z,29.75
2023-02-26T06:12:44.754Z,29.67
2023-02-26T06:15:12.393Z,32.58
2023-02-26T06:17:40.903Z,33.08
2023-02-26T06:20:09.315Z,36.22
2023-02-26T06:22:36.554Z,35.78
2023-02-26T06:25:04.099Z,34.40
2023-02-26T06:27:31.611Z,35.10
2023-02-26T06:29:58.782Z,31.40
2023-02-26T06:32:28.954Z,29.73
2023-02-26T06:34:57.464Z,35.40
2023-02-26T06:37:25.284Z,35.17
2023-02-26T06:39:52.951Z,61.42
2023-02-26T06:42:20.408Z,41.28
2023-02-26T06:44:47.768Z,58.58
2023-02-26T06:47:14.871Z,35.95
2023-02-26T06:49:42.059Z,31.67
2023-02-26T06:52:09.367Z,30.45
2023-02-26T06:54:36.656Z,29.05
2023-02-26T06:57:04.100Z,30.05
2023-02-26T06:59:31.244Z,28.92
2023-02-26T07:01:58.606Z,30.17
2023-02-26T07:04:25.963Z,34.05
2023-02-26T07:06:53.215Z,30.42
2023-02-26T07:09:20.762Z,30.20
2023-02-26T07:11:48.200Z,31.10
2023-02-26T07:14:15.565Z,32.13
2023-02-26T07:16:42.793Z,34.75
2023-02-26T07:19:09.967Z,35.40
2023-02-26T07:21:37.248Z,29.63
2023-02-26T07:24:05.077Z,29.88
2023-02-26T07:26:32.284Z,30.25
2023-02-26T07:28:59.647Z,30.52
2023-02-26T07:31:27.172Z,30.50
2023-02-26T07:33:54.651Z,29.85
2023-02-26T07:36:21.900Z,29.88
2023-02-26T07:38:49.038Z,31.48
2023-02-26T07:41:16.149Z,30.48
2023-02-26T07:43:43.262Z,30.20
2023-02-26T07:46:10.656Z,29.42
2023-02-26T07:48:38.042Z,31.10
2023-02-26T07:51:07.574Z,33.38
2023-02-26T07:53:35.316Z,27.98
2023-02-26T07:56:02.969Z,32.10
2023-02-26T07:58:30.142Z,32.60
2023-02-26T08:00:58.682Z,32.17
2023-02-26T08:03:25.988Z,30.08
2023-02-26T08:05:53.563Z,28.70
2023-02-26T08:08:20.660Z,28.15
2023-02-26T08:10:48.012Z,30.10
2023-02-26T08:13:15.209Z,32.45
2023-02-26T08:15:44.261Z,29.73
2023-02-26T08:18:12.108Z,30.20
2023-02-26T08:20:39.425Z,29.88
2023-02-26T08:23:06.799Z,28.23
2023-02-26T08:25:33.962Z,28.15
2023-02-26T08:28:01.892Z,31.38
2023-02-26T08:30:29.717Z,32.45
2023-02-26T08:32:56.948Z,31.42
2023-02-26T08:35:24.405Z,33.72
2023-02-26T08:37:52.988Z,33.25
2023-02-26T08:40:20.718Z,33.10
2023-02-26T08:42:48.163Z,32.70
2023-02-26T08:45:15.456Z,32.90
2023-02-26T08:47:55.606Z,32.28
2023-02-26T08:50:24.576Z,33.33
2023-02-26T08:52:52.012Z,43.55
2023-02-26T08:55:19.666Z,104.93
2023-02-26T08:57:46.856Z,33.55
2023-02-26T09:00:17.052Z,31.90
2023-02-26T09:02:44.735Z,31.38
2023-02-26T09:05:12.547Z,30.90
2023-02-26T09:07:39.789Z,29.20
2023-02-26T09:10:08.067Z,30.33
2023-02-26T09:12:37.070Z,33.03
2023-02-26T09:15:06.241Z,30.15
2023-02-26T09:17:33.330Z,33.45
2023-02-26T09:20:00.743Z,33.22
2023-02-26T09:22:28.022Z,32.88
2023-02-26T09:24:55.204Z,35.38
2023-02-26T09:27:22.874Z,33.13
2023-02-26T09:29:50.152Z,45.92
2023-02-26T09:32:17.359Z,37.95
2023-02-26T09:34:44.724Z,39.00
2023-02-26T09:37:11.940Z,36.50
2023-02-26T09:39:39.630Z,38.35
2023-02-26T09:42:21.307Z,34.72
2023-02-26T09:44:49.251Z,33.28
2023-02-26T09:47:51.998Z,68.53
2023-02-26T09:50:24.586Z,40.30
2023-02-26T09:53:19.175Z,35.88
2023-02-26T09:55:50.385Z,37.55
2023-02-26T09:58:23.487Z,38.08
2023-02-26T10:01:09.311Z,39.88
2023-02-26T10:03:59.714Z,38.63
2023-02-26T10:06:30.615Z,39.08
2023-02-26T10:09:40.006Z,36.58
2023-02-26T10:12:16.276Z,31.98
2023-02-26T10:15:03.736Z,33.25
2023-02-26T10:17:39.604Z,32.42
2023-02-26T10:20:16.182Z,33.63
2023-02-26T10:23:02.036Z,32.17
2023-02-26T10:25:42.684Z,30.42
2023-02-26T10:28:37.274Z,31.65
2023-02-26T10:31:16.659Z,31.88
2023-02-26T10:34:11.783Z,32.00
2023-02-26T10:36:53.856Z,28.65
2023-02-26T10:39:29.440Z,29.80
2023-02-26T10:42:35.443Z,27.67
2023-02-26T10:45:26.049Z,29.55
2023-02-26T10:48:01.613Z,29.33
2023-02-26T10:50:29.834Z,28.02
2023-02-26T10:52:58.230Z,26.52
2023-02-26T10:55:47.322Z,24.65
2023-02-26T10:58:16.330Z,30.27
2023-02-26T11:00:47.488Z,23.00
2023-02-26T11:03:33.021Z,19.77
2023-02-26T11:06:03.920Z,20.73
2023-02-26T11:08:35.805Z,18.83
2023-02-26T11:11:05.233Z,20.52
2023-02-26T11:13:35.091Z,20.75
2023-02-26T11:16:05.726Z,13.55
2023-02-26T11:18:40.777Z,17.33
2023-02-26T11:21:16.991Z,16.60
2023-02-26T11:23:46.034Z,18.88
2023-02-26T11:26:19.069Z,17.73
2023-02-26T11:28:50.796Z,19.27
2023-02-26T11:31:21.460Z,16.65
2023-02-26T11:34:05.005Z,15.55
2023-02-26T11:36:34.207Z,14.50
2023-02-26T11:39:08.421Z,15.07
2023-02-26T11:41:39.142Z,14.13
2023-02-26T11:44:14.025Z,15.20
2023-02-26T11:46:46.491Z,16.08
2023-02-26T11:49:16.873Z,16.63
2023-02-26T11:51:47.445Z,15.88
2023-02-26T11:54:36.715Z,13.88
2023-02-26T11:57:08.460Z,14.35
2023-02-26T11:59:40.106Z,14.85
2023-02-26T12:02:15.730Z,15.65
2023-02-26T12:04:48.049Z,16.23
2023-02-26T12:07:17.099Z,17.73
2023-02-26T12:09:45.232Z,15.70
2023-02-26T12:12:19.677Z,14.43
2023-02-26T12:15:28.764Z,13.75
2023-02-26T12:18:23.767Z,13.15
2023-02-26T12:21:31.456Z,12.55
2023-02-26T12:24:14.096Z,11.98
2023-02-26T12:26:43.887Z,12.93
2023-02-26T12:29:20.217Z,12.93
2023-02-26T12:31:50.794Z,13.60
2023-02-26T12:34:36.540Z,11.05
2023-02-26T12:37:13.096Z,10.98
2023-02-26T12:39:49.946Z,11.00
2023-02-26T12:42:32.274Z,11.00
2023-02-26T12:45:27.782Z,9.68
2023-02-26T12:48:25.591Z,10.77
2023-02-26T12:51:07.953Z,10.73
2023-02-26T12:53:53.876Z,9.25
2023-02-26T12:56:33.155Z,10.50
2023-02-26T12:59:25.316Z,11.10
2023-02-26T13:02:01.988Z,9.52
2023-02-26T13:04:47.902Z,12.02
2023-02-26T13:07:49.830Z,10.20
2023-02-26T13:10:54.931Z,10.13
2023-02-26T13:13:30.583Z,9.13
2023-02-26T13:16:25.430Z,7.43
2023-02-26T13:19:27.906Z,9.70
2023-02-26T13:22:10.241Z,14.50
2023-02-26T13:24:44.515Z,7.03
2023-02-26T13:27:13.942Z,9.52
2023-02-26T13:30:04.801Z,8.80
2023-02-26T13:32:34.171Z,8.45
2023-02-26T13:35:13.595Z,7.57
2023-02-26T13:37:45.813Z,7.63
2023-02-26T13:40:22.190Z,7.95
2023-02-26T13:43:27.296Z,7.63
2023-02-26T13:46:05.434Z,7.40
2023-02-26T13:49:02.700Z,7.40
2023-02-26T13:51:46.529Z,7.30
2023-02-26T13:57:08.726Z,6.85
2023-02-26T14:00:00.953Z,6.53
2023-02-26T14:02:45.052Z,7.30
2023-02-26T14:05:30.854Z,7.88
2023-02-26T14:08:16.592Z,6.78
2023-02-26T14:10:49.689Z,8.77
2023-02-26T14:13:22.947Z,6.95
2023-02-26T14:16:29.100Z,7.35
2023-02-26T14:19:26.725Z,7.55
2023-02-26T14:22:03.174Z,8.43
2023-02-26T14:24:40.179Z,9.07
2023-02-26T14:27:13.265Z,7.68
2023-02-26T14:29:58.716Z,7.70
2023-02-26T14:32:49.942Z,7.88
2023-02-26T14:35:24.713Z,7.82
2023-02-26T14:38:18.868Z,8.75
2023-02-26T14:41:00.754Z,9.30
2023-02-26T14:44:06.777Z,9.55
2023-02-26T14:46:35.895Z,10.48
2023-02-26T14:49:04.035Z,10.40
2023-02-26T14:51:34.494Z,8.50
2023-02-26T14:54:10.909Z,8.48
2023-02-26T14:57:11.975Z,8.48
2023-02-26T14:59:45.278Z,38.35
2023-02-26T15:02:30.261Z,39.17
2023-02-26T15:05:22.835Z,12.18
2023-02-26T15:08:21.189Z,31.95
2023-02-26T15:11:05.908Z,10.52
2023-02-26T15:13:40.035Z,10.30
2023-02-26T15:16:35.464Z,10.02
2023-02-26T15:19:17.893Z,9.25
2023-02-26T15:22:09.513Z,10.30
2023-02-26T15:24:36.906Z,11.60
2023-02-26T15:27:07.619Z,10.27
2023-02-26T15:29:37.752Z,9.27
2023-02-26T15:32:23.722Z,11.85
2023-02-26T15:35:07.497Z,17.00
2023-02-26T15:37:36.100Z,14.68
2023-02-26T15:40:06.306Z,12.30
2023-02-26T15:42:38.644Z,11.48
2023-02-26T15:45:15.613Z,12.67
2023-02-26T15:47:43.001Z,11.05
2023-02-26T15:50:16.605Z,13.85
2023-02-26T15:52:44.408Z,12.65
2023-02-26T15:55:17.240Z,10.07
2023-02-26T15:57:44.748Z,13.13
2023-02-26T16:00:25.746Z,14.95
2023-02-26T16:02:58.798Z,13.90
2023-02-26T16:05:26.961Z,12.15
2023-02-26T16:07:54.715Z,9.90
2023-02-26T16:10:42.983Z,9.80
2023-02-26T16:13:18.205Z,10.43
2023-02-26T16:15:45.552Z,11.57
2023-02-26T16:18:22.820Z,13.73
2023-02-26T16:20:55.941Z,17.45
2023-02-26T16:23:28.183Z,12.32
2023-02-26T16:26:04.673Z,12.43
2023-02-26T16:28:45.698Z,10.77
2023-02-26T16:31:25.440Z,13.20
2023-02-26T16:34:02.948Z,12.43
2023-02-26T16:36:33.480Z,13.23
2023-02-26T16:39:06.853Z,17.85
2023-02-26T16:41:36.657Z,13.32
2023-02-26T16:44:18.909Z,11.45
2023-02-26T16:46:46.614Z,14.30
2023-02-26T16:49:26.311Z,23.92
2023-02-26T16:51:56.192Z,11.18
2023-02-26T16:54:43.750Z,9.77
2023-02-26T16:57:19.864Z,10.32
2023-02-26T16:59:52.954Z,10.70
2023-02-26T17:02:39.390Z,9.57
2023-02-26T17:05:22.748Z,9.52
2023-02-26T17:08:00.926Z,8.73
2023-02-26T17:10:39.955Z,9.48
2023-02-26T17:13:15.723Z,9.35
2023-02-26T17:15:46.675Z,10.40
2023-02-26T17:18:14.183Z,11.10
2023-02-26T17:20:42.183Z,9.45
2023-02-26T17:23:15.755Z,11.93
2023-02-26T17:25:47.239Z,12.05
2023-02-26T17:28:21.396Z,11.85
2023-02-26T17:30:48.766Z,13.98
2023-02-26T17:33:16.116Z,10.98
2023-02-26T17:35:44.963Z,12.55
2023-02-26T17:38:16.175Z,16.83
2023-02-26T17:40:45.542Z,87.32
2023-02-26T17:43:12.714Z,120.72
2023-02-26T17:45:41.328Z,13.82
2023-02-26T17:48:10.965Z,11.55
2023-02-26T17:50:50.907Z,11.18
2023-02-26T17:53:20.235Z,10.25
2023-02-26T17:55:52.514Z,14.70
2023-02-26T17:58:28.609Z,12.07
2023-02-26T18:00:56.558Z,11.80
2023-02-26T18:03:23.878Z,12.27
2023-02-26T18:05:52.373Z,11.85
2023-02-26T18:08:23.713Z,9.77
2023-02-26T18:10:52.794Z,10.60
2023-02-26T18:13:20.269Z,11.85
2023-02-26T18:15:49.061Z,11.50
2023-02-26T18:18:16.878Z,10.82
2023-02-26T18:20:46.143Z,11.40
2023-02-26T18:23:16.835Z,11.57
2023-02-26T18:25:46.984Z,11.57
2023-02-26T18:28:21.432Z,13.02
2023-02-26T18:30:49.203Z,15.02
2023-02-26T18:33:17.210Z,12.77
2023-02-26T18:35:56.947Z,11.77
2023-02-26T18:38:27.894Z,11.75
2023-02-26T18:40:55.577Z,11.68
2023-02-26T18:43:22.668Z,11.23
2023-02-26T18:45:52.365Z,13.25
2023-02-26T18:48:21.245Z,11.75
2023-02-26T18:50:49.731Z,12.73
2023-02-26T18:53:17.858Z,11.55
2023-02-26T18:55:45.426Z,10.50
2023-02-26T18:58:13.321Z,12.60
2023-02-26T19:00:40.748Z,10.52
2023-02-26T19:03:09.456Z,10.85
2023-02-26T19:05:37.476Z,11.25
2023-02-26T19:08:05.892Z,11.25
2023-02-26T19:10:34.363Z,12.23
2023-02-26T19:13:02.503Z,14.43
2023-02-26T19:15:29.649Z,14.20
2023-02-26T19:17:56.991Z,13.45
2023-02-26T19:20:24.283Z,14.13
2023-02-26T19:22:51.525Z,12.13
2023-02-26T19:25:24.169Z,18.77
2023-02-26T19:27:53.738Z,14.10
2023-02-26T19:30:23.168Z,12.10
2023-02-26T19:32:51.001Z,11.05
2023-02-26T19:35:19.724Z,12.45
2023-02-26T19:37:47.381Z,11.50
2023-02-26T19:40:19.738Z,11.05
2023-02-26T19:42:48.127Z,11.55
2023-02-26T19:45:17.203Z,11.48
2023-02-26T19:47:44.597Z,12.73
2023-02-26T19:50:14.427Z,11.25
2023-02-26T19:52:42.816Z,10.88
2023-02-26T19:55:10.727Z,10.85
2023-02-26T19:57:37.999Z,11.57
2023-02-26T20:00:05.892Z,11.85
2023-02-26T20:02:39.940Z,9.88
2023-02-26T20:05:08.077Z,11.38
2023-02-26T20:07:35.279Z,12.27
2023-02-26T20:10:02.568Z,11.55
2023-02-26T20:12:30.431Z,11.55
2023-02-26T20:14:57.938Z,11.40
2023-02-26T20:17:25.264Z,15.07
2023-02-26T20:19:52.711Z,14.57
2023-02-26T20:22:22.941Z,14.55
2023-02-26T20:24:50.284Z,11.60
2023-02-26T20:27:17.913Z,32.50
2023-02-26T20:29:45.812Z,17.10
2023-02-26T20:32:13.197Z,12.80
2023-02-26T20:34:40.532Z,12.98
2023-02-26T20:37:08.690Z,13.15
2023-02-26T20:39:36.985Z,12.57
2023-02-26T20:42:05.906Z,11.50
2023-02-26T20:44:33.136Z,12.57
2023-02-26T20:47:02.607Z,12.65
2023-02-26T20:49:30.375Z,14.55
2023-02-26T20:51:57.894Z,13.73
2023-02-26T20:54:25.345Z,13.77
2023-02-26T20:56:52.852Z,15.30
2023-02-26T20:59:20.938Z,16.15
2023-02-26T21:01:48.680Z,15.75
2023-02-26T21:04:15.862Z,13.88
2023-02-26T21:06:43.117Z,13.77
2023-02-26T21:09:11.382Z,13.50
2023-02-26T21:11:39.399Z,13.32
2023-02-26T21:14:08.156Z,12.80
2023-02-26T21:16:36.765Z,12.18
2023-02-26T21:19:04.699Z,11.65
2023-02-26T21:21:32.227Z,12.55
2023-02-26T21:23:59.592Z,13.40
2023-02-26T21:26:27.887Z,13.23
2023-02-26T21:28:55.167Z,12.88
2023-02-26T21:31:22.709Z,13.00
2023-02-26T21:33:49.893Z,16.45
2023-02-26T21:36:17.189Z,12.30
2023-02-26T21:38:44.487Z,11.68
2023-02-26T21:41:11.861Z,12.18
2023-02-26T21:43:39.585Z,11.50
2023-02-26T21:46:06.899Z,11.85
2023-02-26T21:48:34.308Z,11.02
2023-02-26T21:51:01.697Z,11.90
2023-02-26T21:53:28.999Z,9.88
2023-02-26T21:55:57.841Z,11.10
2023-02-26T21:58:25.851Z,11.75
2023-02-26T22:00:53.094Z,10.95
2023-02-26T22:03:20.922Z,10.68
2023-02-26T22:05:52.262Z,11.43
2023-02-26T22:08:20.064Z,9.43
2023-02-26T22:10:47.292Z,10.60
2023-02-26T22:13:15.113Z,11.13
2023-02-26T22:15:43.128Z,11.57
2023-02-26T22:18:10.618Z,11.60
2023-02-26T22:20:38.361Z,10.70
2023-02-26T22:23:05.484Z,10.70
2023-02-26T22:25:33.311Z,10.23
2023-02-26T22:28:00.887Z,11.25
2023-02-26T22:30:28.213Z,10.80
2023-02-26T22:32:55.352Z,11.75
2023-02-26T22:35:22.798Z,13.80
2023-02-26T22:37:50.171Z,13.10
2023-02-26T22:40:17.475Z,12.15
2023-02-26T22:42:45.066Z,13.63
2023-02-26T22:45:13.757Z,11.57
2023-02-26T22:47:41.173Z,12.88
2023-02-26T22:50:27.435Z,11.63
2023-02-26T22:52:54.657Z,13.02
2023-02-26T22:55:22.488Z,11.40
2023-02-26T22:57:49.684Z,11.77
2023-02-26T23:00:19.487Z,12.27
2023-02-26T23:02:48.392Z,13.05
2023-02-26T23:05:16.856Z,11.73
2023-02-26T23:07:44.333Z,12.95
2023-02-26T23:10:14.735Z,12.90
2023-02-26T23:12:43.142Z,11.23
2023-02-26T23:15:11.632Z,12.93
2023-02-26T23:17:39.420Z,12.75
2023-02-26T23:20:10.297Z,12.32
2023-02-26T23:22:37.875Z,13.45
2023-02-26T23:25:05.632Z,12.95
2023-02-26T23:27:32.716Z,11.45
2023-02-26T23:29:59.987Z,13.25
2023-02-26T23:32:27.352Z,14.45
2023-02-26T23:34:54.717Z,14.35
2023-02-26T23:37:22.298Z,14.57
2023-02-26T23:39:49.434Z,13.90
2023-02-26T23:42:16.832Z,13.65
2023-02-26T23:44:44.305Z,13.68
2023-02-26T23:47:11.441Z,14.13
2023-02-26T23:49:38.751Z,12.15
2023-02-26T23:52:05.953Z,13.35
2023-02-26T23:54:34.015Z,13.18
2023-02-26T23:57:01.710Z,13.88
2023-02-26T23:59:29.079Z,12.75
